Terminal Aerodrome Forecast
Issued by NWS Pueblo, CO

Home | Current Version | Previous Version | Text Only | Print | Product List | Glossary On
Versions: 1 2 3 4 5 6 7 8 9 10 11 12 13 14 15 16 17 18 19 20 21 22 23 24 25 26 27 28 29 30 31 32 33 34 35 36 37 38
000
FTUS45 KPUB 302141 AAD
TAFALS
TAF AMD
KALS 302141Z 3022/0118 12010G20KT P6SM VCSH BKN050
      TEMPO 3022/0102 VRB15G25KT 4SM TSRA BKN040CB
     FM010600 10010KT P6SM VCSH BKN030=

USA.gov is the U.S. government's official web portal to all federal, state and local government web resources and services.